createdAt,value
2022-09-02T00:00:32.621Z,3.67
2022-09-02T00:05:37.493Z,3.45
2022-09-02T00:10:42.885Z,3.40
2022-09-02T00:15:45.934Z,12.48
2022-09-02T00:20:50.336Z,3.78
2022-09-02T00:25:53.737Z,3.28
2022-09-02T00:30:56.532Z,3.70
2022-09-02T00:36:02.250Z,4.05
2022-09-02T00:41:07.725Z,4.25
2022-09-02T00:46:12.250Z,4.20
2022-09-02T00:51:17.453Z,4.55
2022-09-02T00:56:24.552Z,4.57
2022-09-02T01:01:28.070Z,4.43
2022-09-02T01:06:33.670Z,5.00
2022-09-02T01:11:42.508Z,4.68
2022-09-02T01:16:49.568Z,4.88
2022-09-02T01:21:55.085Z,5.00
2022-09-02T01:26:59.448Z,4.25
2022-09-02T01:32:02.517Z,4.50
2022-09-02T01:37:07.105Z,4.75
2022-09-02T01:42:10.253Z,4.72
2022-09-02T01:47:13.791Z,4.55
2022-09-02T01:52:19.881Z,5.30
2022-09-02T01:57:24.589Z,4.97
2022-09-02T02:02:27.462Z,4.22
2022-09-02T02:07:31.984Z,4.65
2022-09-02T02:12:34.947Z,5.40
2022-09-02T02:17:38.082Z,5.18
2022-09-02T02:22:42.533Z,4.93
2022-09-02T02:27:46.108Z,4.70
2022-09-02T02:32:49.179Z,5.30
2022-09-02T02:37:53.808Z,5.72
2022-09-02T02:42:56.627Z,5.63
2022-09-02T02:47:59.524Z,5.80
2022-09-02T02:53:03.757Z,5.72
2022-09-02T02:58:07.452Z,5.83
2022-09-02T03:03:12.032Z,5.93
2022-09-02T03:08:18.607Z,5.18
2022-09-02T03:13:22.606Z,6.07
2022-09-02T03:18:25.443Z,6.30
2022-09-02T03:23:29.575Z,6.22
2022-09-02T03:28:33.626Z,6.37
2022-09-02T03:33:36.452Z,5.22
2022-09-02T03:38:40.600Z,5.50
2022-09-02T03:43:43.357Z,6.40
2022-09-02T03:48:46.145Z,6.72
2022-09-02T03:53:50.435Z,4.80
2022-09-02T03:58:54.131Z,5.13
2022-09-02T04:03:57.559Z,4.75
2022-09-02T04:09:02.820Z,6.05
2022-09-02T04:14:05.616Z,6.50
2022-09-02T04:19:09.502Z,6.85
2022-09-02T04:24:14.010Z,6.30
2022-09-02T04:29:17.988Z,5.40
2022-09-02T04:34:21.822Z,5.45
2022-09-02T04:39:25.979Z,5.82
2022-09-02T04:44:28.765Z,7.30
2022-09-02T04:49:33.227Z,5.72
2022-09-02T04:54:37.714Z,6.23
2022-09-02T04:59:40.548Z,6.10
2022-09-02T05:04:43.337Z,6.05
2022-09-02T05:09:47.513Z,8.30
2022-09-02T05:14:53.437Z,7.88
2022-09-02T05:19:56.231Z,6.82
2022-09-02T05:25:00.365Z,7.53
2022-09-02T05:30:05.184Z,7.03
2022-09-02T05:35:08.907Z,8.70
2022-09-02T05:40:14.959Z,7.68
2022-09-02T05:45:18.578Z,8.18
2022-09-02T05:50:22.090Z,7.45
2022-09-02T05:55:26.398Z,6.95
2022-09-02T06:00:30.365Z,6.47
2022-09-02T06:05:33.117Z,5.95
2022-09-02T06:10:42.308Z,5.72
2022-09-02T06:15:45.271Z,7.57
2022-09-02T06:20:48.967Z,7.18
2022-09-02T06:25:53.144Z,7.70
2022-09-02T06:30:55.971Z,6.80
2022-09-02T06:35:58.821Z,5.70
2022-09-02T06:41:02.963Z,7.05
2022-09-02T06:46:06.099Z,7.00
2022-09-02T06:51:09.185Z,7.32
2022-09-02T06:56:13.920Z,7.80
2022-09-02T07:01:21.155Z,7.25
2022-09-02T07:06:24.653Z,7.88
2022-09-02T07:11:28.889Z,7.95
2022-09-02T07:16:34.865Z,7.77
2022-09-02T07:21:38.104Z,7.38
2022-09-02T07:26:43.147Z,7.80
2022-09-02T07:31:48.627Z,7.00
2022-09-02T07:36:52.651Z,5.90
2022-09-02T07:41:56.793Z,6.97
2022-09-02T07:46:59.599Z,7.33
2022-09-02T07:52:02.530Z,6.38
2022-09-02T07:57:07.347Z,7.07
2022-09-02T08:07:13.645Z,6.63
2022-09-02T08:12:20.232Z,7.03
2022-09-02T08:17:25.100Z,6.57
2022-09-02T08:27:43.160Z,6.85
2022-09-02T08:32:45.973Z,6.90
2022-09-02T08:37:48.795Z,7.20
2022-09-02T08:42:55.575Z,8.05
2022-09-02T08:48:08.181Z,6.32
2022-09-02T08:53:17.289Z,6.50
2022-09-02T08:58:24.842Z,6.18
2022-09-02T09:03:31.575Z,5.55
2022-09-02T09:08:42.884Z,6.57
2022-09-02T09:14:17.465Z,5.68
2022-09-02T09:19:32.549Z,6.05
2022-09-02T09:24:39.516Z,5.50
2022-09-02T09:29:44.497Z,5.80
2022-09-02T09:35:01.525Z,6.22
2022-09-02T09:40:24.291Z,5.95
2022-09-02T09:45:32.378Z,6.60
2022-09-02T09:50:35.680Z,5.43
2022-09-02T09:55:52.270Z,4.95
2022-09-02T10:01:00.691Z,6.20
2022-09-02T10:06:20.038Z,5.93
2022-09-02T10:11:26.824Z,7.13
2022-09-02T10:16:49.887Z,5.05
2022-09-02T10:22:23.464Z,6.07
2022-09-02T10:27:51.102Z,5.28
2022-09-02T10:33:17.197Z,4.47
2022-09-02T10:38:37.167Z,4.40
2022-09-02T10:43:59.221Z,4.35
2022-09-02T10:49:13.341Z,4.07
2022-09-02T10:54:32.012Z,4.90
2022-09-02T10:59:40.381Z,4.68
2022-09-02T11:04:55.217Z,4.93
2022-09-02T11:10:04.307Z,4.72
2022-09-02T11:15:16.520Z,4.53
2022-09-02T11:20:31.459Z,5.68
2022-09-02T11:25:41.145Z,4.57
2022-09-02T11:35:55.886Z,4.88
2022-09-02T11:41:40.511Z,4.03
2022-09-02T11:47:08.209Z,4.00
2022-09-02T11:52:26.097Z,3.78
2022-09-02T11:57:29.104Z,3.42
2022-09-02T12:02:43.267Z,3.40
2022-09-02T12:07:50.669Z,3.03
2022-09-02T12:13:09.575Z,3.53
2022-09-02T12:18:31.100Z,3.10
2022-09-02T12:24:17.178Z,2.90
2022-09-02T12:29:34.181Z,2.78
2022-09-02T12:34:56.648Z,3.05
2022-09-02T12:40:13.152Z,2.63
2022-09-02T12:45:29.088Z,3.03
2022-09-02T12:50:36.126Z,2.60
2022-09-02T12:55:41.057Z,2.78
2022-09-02T13:00:58.770Z,2.80
2022-09-02T13:06:08.074Z,2.63
2022-09-02T13:12:02.458Z,2.70
2022-09-02T13:23:03.936Z,2.60
2022-09-02T13:28:39.492Z,2.55
2022-09-02T13:33:44.527Z,2.80
2022-09-02T13:38:47.359Z,2.80
2022-09-02T13:44:06.989Z,3.15
2022-09-02T13:49:23.175Z,2.35
2022-09-02T13:54:32.438Z,2.50
2022-09-02T13:59:38.370Z,2.70
2022-09-02T14:04:42.595Z,2.60
2022-09-02T14:09:46.624Z,2.70
2022-09-02T14:14:49.916Z,2.38
2022-09-02T14:20:10.304Z,2.05
2022-09-02T14:25:15.670Z,2.65
2022-09-02T14:30:30.729Z,2.30
2022-09-02T14:35:34.856Z,2.65
2022-09-02T14:40:43.015Z,3.10
2022-09-02T14:45:49.887Z,3.42
2022-09-02T14:51:02.821Z,3.35
2022-09-02T14:56:07.344Z,3.10
2022-09-02T15:01:10.207Z,3.10
2022-09-02T15:06:15.334Z,3.40
2022-09-02T15:11:21.144Z,3.22
2022-09-02T15:16:23.970Z,3.15
2022-09-02T15:21:28.112Z,3.58
2022-09-02T15:26:30.960Z,2.95
2022-09-02T15:31:33.776Z,3.28
2022-09-02T15:36:37.957Z,3.05
2022-09-02T15:41:44.676Z,2.95
2022-09-02T15:46:47.472Z,3.10
2022-09-02T15:51:54.977Z,2.70
2022-09-02T15:56:59.640Z,3.10
2022-09-02T16:02:02.538Z,2.90
2022-09-02T16:07:06.915Z,2.63
2022-09-02T16:12:11.122Z,2.83
2022-09-02T16:17:13.896Z,2.60
2022-09-02T16:22:18.095Z,3.03
2022-09-02T16:27:40.879Z,3.30
2022-09-02T16:32:43.656Z,3.10
2022-09-02T16:37:47.945Z,7.25
2022-09-02T16:42:51.106Z,4.15
2022-09-02T16:47:53.898Z,4.90
2022-09-02T16:52:58.047Z,4.07
2022-09-02T16:58:02.889Z,3.75
2022-09-02T17:03:05.825Z,3.75
2022-09-02T17:08:10.021Z,4.27
2022-09-02T17:13:12.954Z,4.00
2022-09-02T17:18:15.722Z,4.17
2022-09-02T17:23:21.159Z,4.53
2022-09-02T17:28:27.099Z,4.65
2022-09-02T17:33:30.168Z,4.43
2022-09-02T17:38:34.302Z,5.18
2022-09-02T17:43:38.591Z,6.03
2022-09-02T17:49:05.760Z,5.85
2022-09-02T17:54:07.016Z,7.47
2022-09-02T17:59:28.189Z,9.73
2022-09-02T18:04:53.471Z,7.63
2022-09-02T18:09:57.992Z,22.85
2022-09-02T18:15:02.939Z,6.90
2022-09-02T18:20:10.921Z,6.53
2022-09-02T18:25:29.242Z,6.25
2022-09-02T18:30:39.731Z,6.50
2022-09-02T18:35:51.017Z,9.30
2022-09-02T18:41:07.181Z,7.15
2022-09-02T18:46:13.625Z,7.53
2022-09-02T18:51:25.338Z,8.25
2022-09-02T18:56:34.478Z,7.88
2022-09-02T19:01:44.725Z,8.63
2022-09-02T19:06:48.472Z,7.00
2022-09-02T19:11:52.603Z,7.10
2022-09-02T19:16:57.662Z,6.13
2022-09-02T19:22:04.745Z,4.93
2022-09-02T19:27:13.382Z,4.95
2022-09-02T19:32:16.410Z,5.63
2022-09-02T19:37:19.648Z,6.47
2022-09-02T19:42:24.410Z,6.57
2022-09-02T19:52:50.409Z,6.30
2022-09-02T19:57:54.533Z,6.00
2022-09-02T20:02:57.390Z,6.28
2022-09-02T20:08:00.485Z,6.75
2022-09-02T20:13:05.177Z,7.60
2022-09-02T20:18:12.442Z,7.55
2022-09-02T20:23:17.506Z,7.50
2022-09-02T20:28:26.117Z,7.63
2022-09-02T20:33:38.848Z,8.32
2022-09-02T20:38:58.198Z,10.25
2022-09-02T20:44:28.017Z,6.00
2022-09-02T20:49:46.006Z,5.40
2022-09-02T20:54:56.602Z,10.48
2022-09-02T21:00:07.814Z,5.90
2022-09-02T21:05:15.517Z,9.23
2022-09-02T21:10:30.361Z,6.00
2022-09-02T21:15:40.225Z,6.45
2022-09-02T21:20:50.400Z,6.47
2022-09-02T21:25:56.745Z,8.20
2022-09-02T21:31:06.604Z,8.10
2022-09-02T21:36:14.589Z,8.68
2022-09-02T21:41:31.620Z,9.05
2022-09-02T21:46:45.820Z,9.40
2022-09-02T21:51:53.902Z,9.20
2022-09-02T21:57:14.282Z,7.80
2022-09-02T22:02:25.708Z,8.02
2022-09-02T22:07:34.399Z,8.50
2022-09-02T22:12:39.726Z,8.93
2022-09-02T22:17:49.145Z,7.95
2022-09-02T22:22:55.755Z,8.20
2022-09-02T22:28:06.576Z,7.78
2022-09-02T22:33:15.388Z,8.10
2022-09-02T22:38:25.547Z,7.53
2022-09-02T22:43:41.433Z,6.45
2022-09-02T22:49:09.631Z,4.88
2022-09-02T22:54:12.435Z,3.83
2022-09-02T22:59:31.086Z,4.18
2022-09-02T23:04:48.383Z,3.55
2022-09-02T23:09:57.214Z,3.30
2022-09-02T23:15:15.515Z,3.08
2022-09-02T23:20:28.191Z,3.15
2022-09-02T23:25:43.294Z,2.95
2022-09-02T23:31:01.100Z,2.75
2022-09-02T23:36:13.960Z,2.97
2022-09-02T23:41:17.921Z,2.85
2022-09-02T23:46:32.059Z,3.27
2022-09-02T23:51:48.662Z,2.83
2022-09-02T23:57:02.038Z,3.35
